sensor_id;sensor_type;location;lat;lon;timestamp;temperature;humidity
32293;DHT22;43233;48.608;8.838;2024-01-25T00:00:19;9.10;57.70
32293;DHT22;43233;48.608;8.838;2024-01-25T00:02:45;9.10;57.90
32293;DHT22;43233;48.608;8.838;2024-01-25T00:05:10;9.10;58.00
32293;DHT22;43233;48.608;8.838;2024-01-25T00:07:47;9.20;58.20
32293;DHT22;43233;48.608;8.838;2024-01-25T00:10:14;9.10;58.30
32293;DHT22;43233;48.608;8.838;2024-01-25T00:12:40;9.20;58.50
32293;DHT22;43233;48.608;8.838;2024-01-25T00:15:07;9.20;58.40
32293;DHT22;43233;48.608;8.838;2024-01-25T00:17:32;9.20;59.10
32293;DHT22;43233;48.608;8.838;2024-01-25T00:19:58;9.20;59.40
32293;DHT22;43233;48.608;8.838;2024-01-25T00:22:23;9.20;59.50
32293;DHT22;43233;48.608;8.838;2024-01-25T00:24:49;9.20;59.60
32293;DHT22;43233;48.608;8.838;2024-01-25T00:27:15;9.20;59.60
32293;DHT22;43233;48.608;8.838;2024-01-25T00:29:41;9.20;59.60
32293;DHT22;43233;48.608;8.838;2024-01-25T00:32:06;9.10;59.70
32293;DHT22;43233;48.608;8.838;2024-01-25T00:34:32;9.20;59.50
32293;DHT22;43233;48.608;8.838;2024-01-25T00:36:58;9.20;59.10
32293;DHT22;43233;48.608;8.838;2024-01-25T00:39:24;9.20;59.20
32293;DHT22;43233;48.608;8.838;2024-01-25T00:41:51;9.20;59.20
32293;DHT22;43233;48.608;8.838;2024-01-25T00:44:17;9.10;59.40
32293;DHT22;43233;48.608;8.838;2024-01-25T00:46:43;9.10;59.70
32293;DHT22;43233;48.608;8.838;2024-01-25T00:49:12;9.10;59.80
32293;DHT22;43233;48.608;8.838;2024-01-25T00:51:43;9.10;59.70
32293;DHT22;43233;48.608;8.838;2024-01-25T00:54:11;9.10;59.60
32293;DHT22;43233;48.608;8.838;2024-01-25T00:56:37;9.10;59.70
32293;DHT22;43233;48.608;8.838;2024-01-25T00:59:02;9.10;59.70
32293;DHT22;43233;48.608;8.838;2024-01-25T01:01:28;9.10;59.90
32293;DHT22;43233;48.608;8.838;2024-01-25T01:03:55;9.10;60.10
32293;DHT22;43233;48.608;8.838;2024-01-25T01:06:23;9.10;60.90
32293;DHT22;43233;48.608;8.838;2024-01-25T01:08:49;9.10;60.80
32293;DHT22;43233;48.608;8.838;2024-01-25T01:11:15;9.10;61.60
32293;DHT22;43233;48.608;8.838;2024-01-25T01:13:40;9.10;62.10
32293;DHT22;43233;48.608;8.838;2024-01-25T01:16:06;9.10;63.50
32293;DHT22;43233;48.608;8.838;2024-01-25T01:18:32;9.10;64.10
32293;DHT22;43233;48.608;8.838;2024-01-25T01:20:58;9.10;64.70
32293;DHT22;43233;48.608;8.838;2024-01-25T01:23:23;9.10;64.70
32293;DHT22;43233;48.608;8.838;2024-01-25T01:25:49;9.00;65.10
32293;DHT22;43233;48.608;8.838;2024-01-25T01:28:14;9.00;65.40
32293;DHT22;43233;48.608;8.838;2024-01-25T01:30:40;9.00;66.30
32293;DHT22;43233;48.608;8.838;2024-01-25T01:33:10;9.00;66.60
32293;DHT22;43233;48.608;8.838;2024-01-25T01:35:35;8.90;67.30
32293;DHT22;43233;48.608;8.838;2024-01-25T01:38:01;8.90;67.80
32293;DHT22;43233;48.608;8.838;2024-01-25T01:40:27;8.90;67.90
32293;DHT22;43233;48.608;8.838;2024-01-25T01:42:59;8.90;67.80
32293;DHT22;43233;48.608;8.838;2024-01-25T01:45:24;8.90;67.90
32293;DHT22;43233;48.608;8.838;2024-01-25T01:47:50;8.90;68.10
32293;DHT22;43233;48.608;8.838;2024-01-25T01:50:16;8.90;68.20
32293;DHT22;43233;48.608;8.838;2024-01-25T01:52:42;8.90;68.30
32293;DHT22;43233;48.608;8.838;2024-01-25T01:55:08;8.90;68.60
32293;DHT22;43233;48.608;8.838;2024-01-25T01:57:35;8.90;68.90
32293;DHT22;43233;48.608;8.838;2024-01-25T02:00:03;8.90;69.20
32293;DHT22;43233;48.608;8.838;2024-01-25T02:02:30;8.90;69.10
32293;DHT22;43233;48.608;8.838;2024-01-25T02:04:55;8.90;68.90
32293;DHT22;43233;48.608;8.838;2024-01-25T02:07:21;8.90;69.10
32293;DHT22;43233;48.608;8.838;2024-01-25T02:09:47;8.90;69.10
32293;DHT22;43233;48.608;8.838;2024-01-25T02:12:15;8.80;69.20
32293;DHT22;43233;48.608;8.838;2024-01-25T02:14:42;8.80;69.50
32293;DHT22;43233;48.608;8.838;2024-01-25T02:17:08;8.80;70.10
32293;DHT22;43233;48.608;8.838;2024-01-25T02:19:34;8.80;70.50
32293;DHT22;43233;48.608;8.838;2024-01-25T02:21:59;8.70;70.60
32293;DHT22;43233;48.608;8.838;2024-01-25T02:24:25;8.70;70.60
32293;DHT22;43233;48.608;8.838;2024-01-25T02:26:51;8.70;70.90
32293;DHT22;43233;48.608;8.838;2024-01-25T02:29:16;8.70;70.70
32293;DHT22;43233;48.608;8.838;2024-01-25T02:31:42;8.70;70.60
32293;DHT22;43233;48.608;8.838;2024-01-25T02:34:07;8.70;71.20
32293;DHT22;43233;48.608;8.838;2024-01-25T02:36:33;8.60;72.00
32293;DHT22;43233;48.608;8.838;2024-01-25T02:38:59;8.60;72.40
32293;DHT22;43233;48.608;8.838;2024-01-25T02:41:24;8.60;72.70
32293;DHT22;43233;48.608;8.838;2024-01-25T02:43:50;8.60;72.50
32293;DHT22;43233;48.608;8.838;2024-01-25T02:46:15;8.60;73.00
32293;DHT22;43233;48.608;8.838;2024-01-25T02:48:41;8.60;71.50
32293;DHT22;43233;48.608;8.838;2024-01-25T02:51:06;8.60;69.90
32293;DHT22;43233;48.608;8.838;2024-01-25T02:53:32;8.60;68.80
32293;DHT22;43233;48.608;8.838;2024-01-25T02:55:57;8.60;68.70
32293;DHT22;43233;48.608;8.838;2024-01-25T02:58:23;8.50;68.90
32293;DHT22;43233;48.608;8.838;2024-01-25T03:00:49;8.50;69.40
32293;DHT22;43233;48.608;8.838;2024-01-25T03:03:14;8.50;69.90
32293;DHT22;43233;48.608;8.838;2024-01-25T03:05:40;8.50;70.00
32293;DHT22;43233;48.608;8.838;2024-01-25T03:08:05;8.50;70.30
32293;DHT22;43233;48.608;8.838;2024-01-25T03:10:31;8.50;70.50
32293;DHT22;43233;48.608;8.838;2024-01-25T03:12:57;8.50;70.70
32293;DHT22;43233;48.608;8.838;2024-01-25T03:15:22;8.50;70.80
32293;DHT22;43233;48.608;8.838;2024-01-25T03:17:48;8.50;71.20
32293;DHT22;43233;48.608;8.838;2024-01-25T03:20:14;8.50;71.20
32293;DHT22;43233;48.608;8.838;2024-01-25T03:22:39;8.50;71.20
32293;DHT22;43233;48.608;8.838;2024-01-25T03:25:05;8.50;71.20
32293;DHT22;43233;48.608;8.838;2024-01-25T03:27:31;8.60;71.30
32293;DHT22;43233;48.608;8.838;2024-01-25T03:29:56;8.50;72.40
32293;DHT22;43233;48.608;8.838;2024-01-25T03:32:22;8.40;72.70
32293;DHT22;43233;48.608;8.838;2024-01-25T03:34:47;8.40;72.80
32293;DHT22;43233;48.608;8.838;2024-01-25T03:37:13;8.40;73.50
32293;DHT22;43233;48.608;8.838;2024-01-25T03:39:39;8.40;73.90
32293;DHT22;43233;48.608;8.838;2024-01-25T03:42:04;8.30;73.80
32293;DHT22;43233;48.608;8.838;2024-01-25T03:44:30;8.40;73.70
32293;DHT22;43233;48.608;8.838;2024-01-25T03:46:55;8.40;73.40
32293;DHT22;43233;48.608;8.838;2024-01-25T03:49:21;8.40;73.40
32293;DHT22;43233;48.608;8.838;2024-01-25T03:51:48;8.40;73.40
32293;DHT22;43233;48.608;8.838;2024-01-25T03:54:14;8.40;73.50
32293;DHT22;43233;48.608;8.838;2024-01-25T03:56:40;8.40;73.50
32293;DHT22;43233;48.608;8.838;2024-01-25T03:59:05;8.40;73.70
32293;DHT22;43233;48.608;8.838;2024-01-25T04:01:41;8.40;73.80
32293;DHT22;43233;48.608;8.838;2024-01-25T04:04:07;8.30;73.80
32293;DHT22;43233;48.608;8.838;2024-01-25T04:06:34;8.40;73.70
32293;DHT22;43233;48.608;8.838;2024-01-25T04:09:00;8.30;73.90
32293;DHT22;43233;48.608;8.838;2024-01-25T04:11:25;8.30;73.40
32293;DHT22;43233;48.608;8.838;2024-01-25T04:13:51;8.30;73.10
32293;DHT22;43233;48.608;8.838;2024-01-25T04:16:16;8.30;72.90
32293;DHT22;43233;48.608;8.838;2024-01-25T04:18:42;8.30;71.70
32293;DHT22;43233;48.608;8.838;2024-01-25T04:21:08;8.30;71.40
32293;DHT22;43233;48.608;8.838;2024-01-25T04:23:34;8.30;71.10
32293;DHT22;43233;48.608;8.838;2024-01-25T04:26:00;8.30;69.70
32293;DHT22;43233;48.608;8.838;2024-01-25T04:28:26;8.30;68.40
32293;DHT22;43233;48.608;8.838;2024-01-25T04:30:51;8.30;68.10
32293;DHT22;43233;48.608;8.838;2024-01-25T04:33:17;8.20;66.50
32293;DHT22;43233;48.608;8.838;2024-01-25T04:35:43;8.20;66.00
32293;DHT22;43233;48.608;8.838;2024-01-25T04:38:09;8.20;65.60
32293;DHT22;43233;48.608;8.838;2024-01-25T04:40:34;8.20;64.40
32293;DHT22;43233;48.608;8.838;2024-01-25T04:43:00;8.20;64.40
32293;DHT22;43233;48.608;8.838;2024-01-25T04:45:25;8.20;63.70
32293;DHT22;43233;48.608;8.838;2024-01-25T04:47:51;8.20;64.00
32293;DHT22;43233;48.608;8.838;2024-01-25T04:50:17;8.20;63.80
32293;DHT22;43233;48.608;8.838;2024-01-25T04:52:42;8.20;63.90
32293;DHT22;43233;48.608;8.838;2024-01-25T04:55:08;8.20;63.40
32293;DHT22;43233;48.608;8.838;2024-01-25T04:57:34;8.20;63.60
32293;DHT22;43233;48.608;8.838;2024-01-25T04:59:59;8.20;63.30
32293;DHT22;43233;48.608;8.838;2024-01-25T05:02:25;8.20;63.10
32293;DHT22;43233;48.608;8.838;2024-01-25T05:04:50;8.20;62.80
32293;DHT22;43233;48.608;8.838;2024-01-25T05:07:16;8.20;63.00
32293;DHT22;43233;48.608;8.838;2024-01-25T05:09:42;8.20;63.00
32293;DHT22;43233;48.608;8.838;2024-01-25T05:12:07;8.20;62.90
32293;DHT22;43233;48.608;8.838;2024-01-25T05:14:33;8.10;62.70
32293;DHT22;43233;48.608;8.838;2024-01-25T05:16:58;8.10;62.90
32293;DHT22;43233;48.608;8.838;2024-01-25T05:19:24;8.10;62.90
32293;DHT22;43233;48.608;8.838;2024-01-25T05:21:51;8.10;62.90
32293;DHT22;43233;48.608;8.838;2024-01-25T05:24:16;8.10;63.10
32293;DHT22;43233;48.608;8.838;2024-01-25T05:26:42;8.10;63.20
32293;DHT22;43233;48.608;8.838;2024-01-25T05:29:07;8.10;63.20
32293;DHT22;43233;48.608;8.838;2024-01-25T05:31:33;8.10;63.30
32293;DHT22;43233;48.608;8.838;2024-01-25T05:33:59;8.00;63.70
32293;DHT22;43233;48.608;8.838;2024-01-25T05:36:24;8.10;63.80
32293;DHT22;43233;48.608;8.838;2024-01-25T05:38:50;8.00;63.80
32293;DHT22;43233;48.608;8.838;2024-01-25T05:41:15;8.00;64.00
32293;DHT22;43233;48.608;8.838;2024-01-25T05:43:41;8.00;63.80
32293;DHT22;43233;48.608;8.838;2024-01-25T05:46:07;8.00;63.70
32293;DHT22;43233;48.608;8.838;2024-01-25T05:48:35;8.00;63.90
32293;DHT22;43233;48.608;8.838;2024-01-25T05:51:00;8.00;64.10
32293;DHT22;43233;48.608;8.838;2024-01-25T05:53:26;8.00;64.90
32293;DHT22;43233;48.608;8.838;2024-01-25T05:55:51;7.90;64.90
32293;DHT22;43233;48.608;8.838;2024-01-25T05:58:17;7.90;64.20
32293;DHT22;43233;48.608;8.838;2024-01-25T06:00:43;7.90;64.40
32293;DHT22;43233;48.608;8.838;2024-01-25T06:03:08;7.80;64.40
32293;DHT22;43233;48.608;8.838;2024-01-25T06:05:34;7.80;64.50
32293;DHT22;43233;48.608;8.838;2024-01-25T06:08:00;7.70;64.40
32293;DHT22;43233;48.608;8.838;2024-01-25T06:10:25;7.70;64.40
32293;DHT22;43233;48.608;8.838;2024-01-25T06:12:51;7.60;64.30
32293;DHT22;43233;48.608;8.838;2024-01-25T06:15:16;7.60;64.50
32293;DHT22;43233;48.608;8.838;2024-01-25T06:17:42;7.50;64.60
32293;DHT22;43233;48.608;8.838;2024-01-25T06:20:08;7.50;64.80
32293;DHT22;43233;48.608;8.838;2024-01-25T06:22:35;7.40;64.70
32293;DHT22;43233;48.608;8.838;2024-01-25T06:25:01;7.40;64.70
32293;DHT22;43233;48.608;8.838;2024-01-25T06:27:29;7.40;64.70
32293;DHT22;43233;48.608;8.838;2024-01-25T06:29:54;7.30;64.70
32293;DHT22;43233;48.608;8.838;2024-01-25T06:32:20;7.30;64.60
32293;DHT22;43233;48.608;8.838;2024-01-25T06:34:45;7.20;64.80
32293;DHT22;43233;48.608;8.838;2024-01-25T06:37:11;7.20;65.90
32293;DHT22;43233;48.608;8.838;2024-01-25T06:39:40;7.10;65.60
32293;DHT22;43233;48.608;8.838;2024-01-25T06:42:06;7.00;66.10
32293;DHT22;43233;48.608;8.838;2024-01-25T06:44:32;7.00;66.00
32293;DHT22;43233;48.608;8.838;2024-01-25T06:46:58;7.00;66.00
32293;DHT22;43233;48.608;8.838;2024-01-25T06:49:23;6.90;66.50
32293;DHT22;43233;48.608;8.838;2024-01-25T06:51:49;6.80;67.10
32293;DHT22;43233;48.608;8.838;2024-01-25T06:54:15;6.80;67.80
32293;DHT22;43233;48.608;8.838;2024-01-25T06:56:42;6.80;67.80
32293;DHT22;43233;48.608;8.838;2024-01-25T06:59:08;6.70;68.10
32293;DHT22;43233;48.608;8.838;2024-01-25T07:01:33;6.70;68.00
32293;DHT22;43233;48.608;8.838;2024-01-25T07:03:59;6.70;68.10
32293;DHT22;43233;48.608;8.838;2024-01-25T07:06:25;6.70;67.80
32293;DHT22;43233;48.608;8.838;2024-01-25T07:08:51;6.60;67.50
32293;DHT22;43233;48.608;8.838;2024-01-25T07:11:18;6.60;67.70
32293;DHT22;43233;48.608;8.838;2024-01-25T07:13:44;6.50;67.90
32293;DHT22;43233;48.608;8.838;2024-01-25T07:16:09;6.50;67.80
32293;DHT22;43233;48.608;8.838;2024-01-25T07:18:35;6.50;67.70
32293;DHT22;43233;48.608;8.838;2024-01-25T07:21:01;6.50;67.60
32293;DHT22;43233;48.608;8.838;2024-01-25T07:23:29;6.40;67.20
32293;DHT22;43233;48.608;8.838;2024-01-25T07:25:55;6.30;67.40
32293;DHT22;43233;48.608;8.838;2024-01-25T07:28:20;6.30;68.00
32293;DHT22;43233;48.608;8.838;2024-01-25T07:30:47;6.30;68.40
32293;DHT22;43233;48.608;8.838;2024-01-25T07:33:13;6.40;69.90
32293;DHT22;43233;48.608;8.838;2024-01-25T07:35:39;6.40;69.90
32293;DHT22;43233;48.608;8.838;2024-01-25T07:38:14;6.60;70.20
32293;DHT22;43233;48.608;8.838;2024-01-25T07:40:40;6.70;70.10
32293;DHT22;43233;48.608;8.838;2024-01-25T07:43:06;6.90;69.20
32293;DHT22;43233;48.608;8.838;2024-01-25T07:45:32;7.00;68.20
32293;DHT22;43233;48.608;8.838;2024-01-25T07:47:58;7.20;67.30
32293;DHT22;43233;48.608;8.838;2024-01-25T07:50:23;7.40;66.80
32293;DHT22;43233;48.608;8.838;2024-01-25T07:52:49;7.70;66.10
32293;DHT22;43233;48.608;8.838;2024-01-25T07:55:17;7.90;64.90
32293;DHT22;43233;48.608;8.838;2024-01-25T07:57:43;8.20;63.20
32293;DHT22;43233;48.608;8.838;2024-01-25T08:00:09;8.40;63.70
32293;DHT22;43233;48.608;8.838;2024-01-25T08:02:38;8.60;61.30
32293;DHT22;43233;48.608;8.838;2024-01-25T08:05:05;9.00;60.90
32293;DHT22;43233;48.608;8.838;2024-01-25T08:07:31;9.30;59.30
32293;DHT22;43233;48.608;8.838;2024-01-25T08:09:57;9.60;57.80
32293;DHT22;43233;48.608;8.838;2024-01-25T08:12:26;10.00;56.00
32293;DHT22;43233;48.608;8.838;2024-01-25T08:14:52;10.30;53.80
32293;DHT22;43233;48.608;8.838;2024-01-25T08:17:18;10.60;52.80
32293;DHT22;43233;48.608;8.838;2024-01-25T08:19:44;10.80;51.50
32293;DHT22;43233;48.608;8.838;2024-01-25T08:22:10;11.10;50.80
32293;DHT22;43233;48.608;8.838;2024-01-25T08:24:36;11.30;50.30
32293;DHT22;43233;48.608;8.838;2024-01-25T08:27:01;11.50;49.80
32293;DHT22;43233;48.608;8.838;2024-01-25T08:29:27;11.70;48.70
32293;DHT22;43233;48.608;8.838;2024-01-25T08:31:52;11.90;48.10
32293;DHT22;43233;48.608;8.838;2024-01-25T08:34:18;12.20;47.40
32293;DHT22;43233;48.608;8.838;2024-01-25T08:36:44;12.50;45.90
32293;DHT22;43233;48.608;8.838;2024-01-25T08:39:10;12.80;45.30
32293;DHT22;43233;48.608;8.838;2024-01-25T08:41:35;13.00;43.10
32293;DHT22;43233;48.608;8.838;2024-01-25T08:44:01;13.20;42.20
32293;DHT22;43233;48.608;8.838;2024-01-25T08:46:27;13.40;41.10
32293;DHT22;43233;48.608;8.838;2024-01-25T08:48:52;13.60;40.10
32293;DHT22;43233;48.608;8.838;2024-01-25T08:51:18;13.90;38.50
32293;DHT22;43233;48.608;8.838;2024-01-25T08:53:43;14.10;38.40
32293;DHT22;43233;48.608;8.838;2024-01-25T08:56:09;14.20;37.60
32293;DHT22;43233;48.608;8.838;2024-01-25T08:58:35;14.30;36.70
32293;DHT22;43233;48.608;8.838;2024-01-25T09:01:00;14.30;35.70
32293;DHT22;43233;48.608;8.838;2024-01-25T09:03:26;14.30;35.90
32293;DHT22;43233;48.608;8.838;2024-01-25T09:05:52;14.20;35.80
32293;DHT22;43233;48.608;8.838;2024-01-25T09:08:17;14.10;36.00
32293;DHT22;43233;48.608;8.838;2024-01-25T09:10:43;14.00;36.30
32293;DHT22;43233;48.608;8.838;2024-01-25T09:13:10;14.00;35.90
32293;DHT22;43233;48.608;8.838;2024-01-25T09:15:36;13.80;36.50
32293;DHT22;43233;48.608;8.838;2024-01-25T09:18:02;13.90;36.80
32293;DHT22;43233;48.608;8.838;2024-01-25T09:20:27;14.20;36.30
32293;DHT22;43233;48.608;8.838;2024-01-25T09:22:53;14.40;35.80
32293;DHT22;43233;48.608;8.838;2024-01-25T09:25:22;14.60;34.60
32293;DHT22;43233;48.608;8.838;2024-01-25T09:27:47;14.60;34.80
32293;DHT22;43233;48.608;8.838;2024-01-25T09:30:13;14.50;34.00
32293;DHT22;43233;48.608;8.838;2024-01-25T09:32:39;14.10;34.80
32293;DHT22;43233;48.608;8.838;2024-01-25T09:35:05;13.60;35.50
32293;DHT22;43233;48.608;8.838;2024-01-25T09:37:31;13.30;36.40
32293;DHT22;43233;48.608;8.838;2024-01-25T09:39:56;12.90;37.00
32293;DHT22;43233;48.608;8.838;2024-01-25T09:42:24;12.50;38.30
32293;DHT22;43233;48.608;8.838;2024-01-25T09:44:50;12.30;39.00
32293;DHT22;43233;48.608;8.838;2024-01-25T09:47:17;12.00;40.20
32293;DHT22;43233;48.608;8.838;2024-01-25T09:49:45;12.00;41.90
32293;DHT22;43233;48.608;8.838;2024-01-25T09:52:12;12.40;41.90
32293;DHT22;43233;48.608;8.838;2024-01-25T09:54:39;13.10;41.30
32293;DHT22;43233;48.608;8.838;2024-01-25T09:57:15;13.80;39.30
32293;DHT22;43233;48.608;8.838;2024-01-25T09:59:44;14.50;36.00
32293;DHT22;43233;48.608;8.838;2024-01-25T10:02:11;14.90;35.00
32293;DHT22;43233;48.608;8.838;2024-01-25T10:04:37;15.40;34.10
32293;DHT22;43233;48.608;8.838;2024-01-25T10:07:03;15.80;32.70
32293;DHT22;43233;48.608;8.838;2024-01-25T10:09:31;16.20;32.20
32293;DHT22;43233;48.608;8.838;2024-01-25T10:12:03;16.50;31.90
32293;DHT22;43233;48.608;8.838;2024-01-25T10:14:28;16.40;30.10
32293;DHT22;43233;48.608;8.838;2024-01-25T10:16:54;16.00;30.20
32293;DHT22;43233;48.608;8.838;2024-01-25T10:19:20;15.80;31.10
32293;DHT22;43233;48.608;8.838;2024-01-25T10:21:46;15.90;31.70
32293;DHT22;43233;48.608;8.838;2024-01-25T10:24:12;16.30;31.20
32293;DHT22;43233;48.608;8.838;2024-01-25T10:26:38;16.60;30.60
32293;DHT22;43233;48.608;8.838;2024-01-25T10:29:06;17.10;29.90
32293;DHT22;43233;48.608;8.838;2024-01-25T10:31:32;17.70;28.90
32293;DHT22;43233;48.608;8.838;2024-01-25T10:34:01;18.10;27.00
32293;DHT22;43233;48.608;8.838;2024-01-25T10:36:27;18.30;26.30
32293;DHT22;43233;48.608;8.838;2024-01-25T10:38:54;18.60;26.40
32293;DHT22;43233;48.608;8.838;2024-01-25T10:41:20;18.70;25.50
32293;DHT22;43233;48.608;8.838;2024-01-25T10:43:46;19.00;24.50
32293;DHT22;43233;48.608;8.838;2024-01-25T10:46:11;19.10;24.10
32293;DHT22;43233;48.608;8.838;2024-01-25T10:48:37;18.80;23.80
32293;DHT22;43233;48.608;8.838;2024-01-25T10:51:04;18.80;24.20
32293;DHT22;43233;48.608;8.838;2024-01-25T10:53:32;18.60;24.70
32293;DHT22;43233;48.608;8.838;2024-01-25T10:55:57;18.50;25.20
32293;DHT22;43233;48.608;8.838;2024-01-25T10:58:23;18.40;25.00
32293;DHT22;43233;48.608;8.838;2024-01-25T11:00:55;18.20;25.40
32293;DHT22;43233;48.608;8.838;2024-01-25T11:03:28;18.20;25.80
32293;DHT22;43233;48.608;8.838;2024-01-25T11:06:08;18.60;25.00
32293;DHT22;43233;48.608;8.838;2024-01-25T11:08:38;18.50;24.10
32293;DHT22;43233;48.608;8.838;2024-01-25T11:11:08;18.20;24.40
32293;DHT22;43233;48.608;8.838;2024-01-25T11:13:38;17.90;25.00
32293;DHT22;43233;48.608;8.838;2024-01-25T11:16:14;17.90;26.00
32293;DHT22;43233;48.608;8.838;2024-01-25T11:18:56;18.00;25.90
32293;DHT22;43233;48.608;8.838;2024-01-25T11:21:43;18.20;25.50
32293;DHT22;43233;48.608;8.838;2024-01-25T11:24:14;18.60;25.10
32293;DHT22;43233;48.608;8.838;2024-01-25T11:26:42;18.90;24.80
32293;DHT22;43233;48.608;8.838;2024-01-25T11:29:08;19.50;23.40
32293;DHT22;43233;48.608;8.838;2024-01-25T11:31:34;20.00;22.80
32293;DHT22;43233;48.608;8.838;2024-01-25T11:34:00;20.40;22.00
32293;DHT22;43233;48.608;8.838;2024-01-25T11:36:27;20.90;21.70
32293;DHT22;43233;48.608;8.838;2024-01-25T11:38:53;21.40;20.20
32293;DHT22;43233;48.608;8.838;2024-01-25T11:41:19;21.80;19.40
32293;DHT22;43233;48.608;8.838;2024-01-25T11:43:45;22.10;19.10
32293;DHT22;43233;48.608;8.838;2024-01-25T11:46:11;22.30;19.30
32293;DHT22;43233;48.608;8.838;2024-01-25T11:48:41;22.70;19.00
32293;DHT22;43233;48.608;8.838;2024-01-25T11:51:09;22.80;17.70
32293;DHT22;43233;48.608;8.838;2024-01-25T11:53:36;23.10;17.50
32293;DHT22;43233;48.608;8.838;2024-01-25T11:56:02;23.40;17.60
32293;DHT22;43233;48.608;8.838;2024-01-25T11:58:29;23.90;17.30
32293;DHT22;43233;48.608;8.838;2024-01-25T12:00:54;24.20;16.40
32293;DHT22;43233;48.608;8.838;2024-01-25T12:03:20;24.60;16.10
32293;DHT22;43233;48.608;8.838;2024-01-25T12:05:46;25.30;15.10
32293;DHT22;43233;48.608;8.838;2024-01-25T12:08:13;25.80;14.60
32293;DHT22;43233;48.608;8.838;2024-01-25T12:10:39;26.40;13.70
32293;DHT22;43233;48.608;8.838;2024-01-25T12:13:07;26.80;13.00
32293;DHT22;43233;48.608;8.838;2024-01-25T12:15:35;27.00;13.00
32293;DHT22;43233;48.608;8.838;2024-01-25T12:18:01;27.20;13.50
32293;DHT22;43233;48.608;8.838;2024-01-25T12:20:28;27.70;12.80
32293;DHT22;43233;48.608;8.838;2024-01-25T12:22:54;27.90;12.20
32293;DHT22;43233;48.608;8.838;2024-01-25T12:25:19;28.00;12.20
32293;DHT22;43233;48.608;8.838;2024-01-25T12:27:47;28.10;12.50
32293;DHT22;43233;48.608;8.838;2024-01-25T12:30:14;28.10;12.00
32293;DHT22;43233;48.608;8.838;2024-01-25T12:32:40;28.00;12.50
32293;DHT22;43233;48.608;8.838;2024-01-25T12:35:06;28.00;11.90
32293;DHT22;43233;48.608;8.838;2024-01-25T12:37:33;28.00;12.10
32293;DHT22;43233;48.608;8.838;2024-01-25T12:39:59;27.90;11.80
32293;DHT22;43233;48.608;8.838;2024-01-25T12:42:24;27.90;12.40
32293;DHT22;43233;48.608;8.838;2024-01-25T12:44:52;28.00;13.00
32293;DHT22;43233;48.608;8.838;2024-01-25T12:47:21;28.40;13.00
32293;DHT22;43233;48.608;8.838;2024-01-25T12:49:47;28.70;11.60
32293;DHT22;43233;48.608;8.838;2024-01-25T12:52:14;29.00;11.10
32293;DHT22;43233;48.608;8.838;2024-01-25T12:54:40;28.80;11.10
32293;DHT22;43233;48.608;8.838;2024-01-25T12:57:07;28.90;11.00
32293;DHT22;43233;48.608;8.838;2024-01-25T12:59:34;28.90;10.50
32293;DHT22;43233;48.608;8.838;2024-01-25T13:01:59;28.50;11.00
32293;DHT22;43233;48.608;8.838;2024-01-25T13:04:25;27.70;11.20
32293;DHT22;43233;48.608;8.838;2024-01-25T13:06:53;26.60;11.90
32293;DHT22;43233;48.608;8.838;2024-01-25T13:09:20;25.40;13.20
32293;DHT22;43233;48.608;8.838;2024-01-25T13:11:46;24.40;14.60
32293;DHT22;43233;48.608;8.838;2024-01-25T13:14:12;23.60;15.40
32293;DHT22;43233;48.608;8.838;2024-01-25T13:16:38;23.00;15.70
32293;DHT22;43233;48.608;8.838;2024-01-25T13:19:03;22.50;16.20
32293;DHT22;43233;48.608;8.838;2024-01-25T13:21:29;22.30;17.10
32293;DHT22;43233;48.608;8.838;2024-01-25T13:23:55;21.60;16.80
32293;DHT22;43233;48.608;8.838;2024-01-25T13:26:20;21.00;17.70
32293;DHT22;43233;48.608;8.838;2024-01-25T13:28:46;20.30;18.70
32293;DHT22;43233;48.608;8.838;2024-01-25T13:31:12;19.50;19.20
32293;DHT22;43233;48.608;8.838;2024-01-25T13:33:37;18.80;20.10
32293;DHT22;43233;48.608;8.838;2024-01-25T13:36:03;18.30;21.20
32293;DHT22;43233;48.608;8.838;2024-01-25T13:38:34;17.90;21.70
32293;DHT22;43233;48.608;8.838;2024-01-25T13:41:00;17.50;22.70
32293;DHT22;43233;48.608;8.838;2024-01-25T13:43:25;17.20;22.70
32293;DHT22;43233;48.608;8.838;2024-01-25T13:45:51;16.90;23.30
32293;DHT22;43233;48.608;8.838;2024-01-25T13:48:17;16.60;24.20
32293;DHT22;43233;48.608;8.838;2024-01-25T13:50:44;16.30;25.40
32293;DHT22;43233;48.608;8.838;2024-01-25T13:53:10;16.00;25.30
32293;DHT22;43233;48.608;8.838;2024-01-25T13:55:36;15.70;25.90
32293;DHT22;43233;48.608;8.838;2024-01-25T13:58:01;15.60;26.80
32293;DHT22;43233;48.608;8.838;2024-01-25T14:00:27;15.40;27.40
32293;DHT22;43233;48.608;8.838;2024-01-25T14:02:53;15.20;27.60
32293;DHT22;43233;48.608;8.838;2024-01-25T14:05:19;15.10;28.30
32293;DHT22;43233;48.608;8.838;2024-01-25T14:07:45;15.00;28.50
32293;DHT22;43233;48.608;8.838;2024-01-25T14:10:10;14.90;29.20
32293;DHT22;43233;48.608;8.838;2024-01-25T14:12:36;14.90;29.30
32293;DHT22;43233;48.608;8.838;2024-01-25T14:15:02;14.80;28.90
32293;DHT22;43233;48.608;8.838;2024-01-25T14:17:27;14.70;29.10
32293;DHT22;43233;48.608;8.838;2024-01-25T14:19:53;14.60;30.10
32293;DHT22;43233;48.608;8.838;2024-01-25T14:22:19;14.50;30.60
32293;DHT22;43233;48.608;8.838;2024-01-25T14:24:45;14.40;30.90
32293;DHT22;43233;48.608;8.838;2024-01-25T14:27:11;14.30;31.10
32293;DHT22;43233;48.608;8.838;2024-01-25T14:29:37;14.20;31.20
32293;DHT22;43233;48.608;8.838;2024-01-25T14:32:03;14.10;31.30
32293;DHT22;43233;48.608;8.838;2024-01-25T14:34:28;14.00;30.90
32293;DHT22;43233;48.608;8.838;2024-01-25T14:36:54;14.00;31.40
32293;DHT22;43233;48.608;8.838;2024-01-25T14:39:20;13.90;32.00
32293;DHT22;43233;48.608;8.838;2024-01-25T14:41:46;13.80;32.30
32293;DHT22;43233;48.608;8.838;2024-01-25T14:44:12;13.80;33.00
32293;DHT22;43233;48.608;8.838;2024-01-25T14:46:38;13.70;33.40
32293;DHT22;43233;48.608;8.838;2024-01-25T14:49:04;13.60;34.20
32293;DHT22;43233;48.608;8.838;2024-01-25T14:51:30;13.60;34.40
32293;DHT22;43233;48.608;8.838;2024-01-25T14:53:56;13.50;34.90
32293;DHT22;43233;48.608;8.838;2024-01-25T14:56:21;13.40;35.20
32293;DHT22;43233;48.608;8.838;2024-01-25T14:58:47;13.30;35.90
32293;DHT22;43233;48.608;8.838;2024-01-25T15:01:16;13.20;36.30
32293;DHT22;43233;48.608;8.838;2024-01-25T15:03:47;13.20;36.80
32293;DHT22;43233;48.608;8.838;2024-01-25T15:06:14;13.10;37.20
32293;DHT22;43233;48.608;8.838;2024-01-25T15:08:39;13.10;37.80
32293;DHT22;43233;48.608;8.838;2024-01-25T15:11:06;13.00;38.50
32293;DHT22;43233;48.608;8.838;2024-01-25T15:13:31;13.00;38.70
32293;DHT22;43233;48.608;8.838;2024-01-25T15:15:57;12.90;39.00
32293;DHT22;43233;48.608;8.838;2024-01-25T15:18:23;12.90;39.30
32293;DHT22;43233;48.608;8.838;2024-01-25T15:20:48;12.90;39.60
32293;DHT22;43233;48.608;8.838;2024-01-25T15:23:14;12.80;40.20
32293;DHT22;43233;48.608;8.838;2024-01-25T15:25:40;12.80;40.80
32293;DHT22;43233;48.608;8.838;2024-01-25T15:28:05;12.70;41.50
32293;DHT22;43233;48.608;8.838;2024-01-25T15:30:31;12.70;42.10
32293;DHT22;43233;48.608;8.838;2024-01-25T15:32:56;12.60;42.70